sensor_id;sensor_type;location;lat;lon;timestamp;P1;durP1;ratioP1;P2;durP2;ratioP2
7539;SDS011;3811;49.006;12.076;2023-03-31T00:01:26;7.20;;;4.47;;
7539;SDS011;3811;49.006;12.076;2023-03-31T00:03:54;5.10;;;4.00;;
7539;SDS011;3811;49.006;12.076;2023-03-31T00:06:28;5.87;;;4.03;;
7539;SDS011;3811;49.006;12.076;2023-03-31T00:08:55;7.27;;;4.13;;
7539;SDS011;3811;49.006;12.076;2023-03-31T00:11:27;6.33;;;4.50;;
7539;SDS011;3811;49.006;12.076;2023-03-31T00:13:55;6.97;;;4.83;;
7539;SDS011;3811;49.006;12.076;2023-03-31T00:16:22;6.10;;;4.73;;
7539;SDS011;3811;49.006;12.076;2023-03-31T00:18:49;8.40;;;4.00;;
7539;SDS011;3811;49.006;12.076;2023-03-31T00:21:16;7.97;;;4.90;;
7539;SDS011;3811;49.006;12.076;2023-03-31T00:23:49;6.10;;;4.47;;
7539;SDS011;3811;49.006;12.076;2023-03-31T00:26:17;5.67;;;4.97;;
7539;SDS011;3811;49.006;12.076;2023-03-31T00:28:46;7.20;;;5.17;;
7539;SDS011;3811;49.006;12.076;2023-03-31T00:31:13;4.73;;;4.30;;
7539;SDS011;3811;49.006;12.076;2023-03-31T00:33:40;9.17;;;4.80;;
7539;SDS011;3811;49.006;12.076;2023-03-31T00:36:08;7.30;;;4.17;;
7539;SDS011;3811;49.006;12.076;2023-03-31T00:38:36;7.70;;;5.20;;
7539;SDS011;3811;49.006;12.076;2023-03-31T00:41:03;7.27;;;4.50;;
7539;SDS011;3811;49.006;12.076;2023-03-31T00:43:32;5.50;;;4.33;;
7539;SDS011;3811;49.006;12.076;2023-03-31T00:46:09;4.50;;;4.10;;
7539;SDS011;3811;49.006;12.076;2023-03-31T00:48:40;5.60;;;4.43;;
7539;SDS011;3811;49.006;12.076;2023-03-31T00:51:10;5.03;;;4.50;;
7539;SDS011;3811;49.006;12.076;2023-03-31T00:53:38;5.53;;;4.17;;
7539;SDS011;3811;49.006;12.076;2023-03-31T00:56:07;7.70;;;4.63;;
7539;SDS011;3811;49.006;12.076;2023-03-31T00:58:37;8.27;;;4.17;;
7539;SDS011;3811;49.006;12.076;2023-03-31T01:01:09;5.93;;;4.50;;
7539;SDS011;3811;49.006;12.076;2023-03-31T01:03:41;8.83;;;4.53;;
7539;SDS011;3811;49.006;12.076;2023-03-31T01:06:11;7.23;;;4.83;;
7539;SDS011;3811;49.006;12.076;2023-03-31T01:08:43;4.87;;;4.43;;
7539;SDS011;3811;49.006;12.076;2023-03-31T01:11:13;6.93;;;4.33;;
7539;SDS011;3811;49.006;12.076;2023-03-31T01:13:41;6.60;;;4.73;;
7539;SDS011;3811;49.006;12.076;2023-03-31T01:16:11;8.97;;;4.43;;
7539;SDS011;3811;49.006;12.076;2023-03-31T01:18:38;8.63;;;4.33;;
7539;SDS011;3811;49.006;12.076;2023-03-31T01:21:21;6.07;;;4.60;;
7539;SDS011;3811;49.006;12.076;2023-03-31T01:24:07;4.87;;;4.37;;
7539;SDS011;3811;49.006;12.076;2023-03-31T01:27:22;5.17;;;4.37;;
7539;SDS011;3811;49.006;12.076;2023-03-31T01:33:01;7.70;;;5.07;;
7539;SDS011;3811;49.006;12.076;2023-03-31T01:38:27;5.53;;;5.03;;
7539;SDS011;3811;49.006;12.076;2023-03-31T01:41:23;5.70;;;4.70;;
7539;SDS011;3811;49.006;12.076;2023-03-31T01:43:59;6.07;;;4.60;;
7539;SDS011;3811;49.006;12.076;2023-03-31T01:46:34;6.60;;;4.60;;
7539;SDS011;3811;49.006;12.076;2023-03-31T01:49:05;12.40;;;5.33;;
7539;SDS011;3811;49.006;12.076;2023-03-31T01:51:44;8.33;;;4.83;;
7539;SDS011;3811;49.006;12.076;2023-03-31T01:54:14;8.17;;;5.20;;
7539;SDS011;3811;49.006;12.076;2023-03-31T01:56:48;7.47;;;4.50;;
7539;SDS011;3811;49.006;12.076;2023-03-31T01:59:17;6.93;;;4.47;;
7539;SDS011;3811;49.006;12.076;2023-03-31T02:01:46;7.87;;;4.80;;
7539;SDS011;3811;49.006;12.076;2023-03-31T02:04:18;8.07;;;5.93;;
7539;SDS011;3811;49.006;12.076;2023-03-31T02:06:49;6.67;;;4.83;;
7539;SDS011;3811;49.006;12.076;2023-03-31T02:09:21;7.77;;;5.07;;
7539;SDS011;3811;49.006;12.076;2023-03-31T02:11:50;6.57;;;4.90;;
7539;SDS011;3811;49.006;12.076;2023-03-31T02:14:21;5.53;;;4.37;;
7539;SDS011;3811;49.006;12.076;2023-03-31T02:16:52;6.03;;;4.87;;
7539;SDS011;3811;49.006;12.076;2023-03-31T02:19:22;6.70;;;4.80;;
7539;SDS011;3811;49.006;12.076;2023-03-31T02:21:53;7.00;;;5.13;;
7539;SDS011;3811;49.006;12.076;2023-03-31T02:24:22;5.10;;;4.43;;
7539;SDS011;3811;49.006;12.076;2023-03-31T02:26:52;7.07;;;5.47;;
7539;SDS011;3811;49.006;12.076;2023-03-31T02:29:20;6.10;;;4.77;;
7539;SDS011;3811;49.006;12.076;2023-03-31T02:31:48;6.03;;;5.20;;
7539;SDS011;3811;49.006;12.076;2023-03-31T02:34:18;9.00;;;5.80;;
7539;SDS011;3811;49.006;12.076;2023-03-31T02:36:46;6.40;;;5.40;;
7539;SDS011;3811;49.006;12.076;2023-03-31T02:39:15;7.43;;;5.43;;
7539;SDS011;3811;49.006;12.076;2023-03-31T02:41:44;9.27;;;5.40;;
7539;SDS011;3811;49.006;12.076;2023-03-31T02:44:13;5.87;;;5.37;;
7539;SDS011;3811;49.006;12.076;2023-03-31T02:46:40;6.23;;;5.03;;
7539;SDS011;3811;49.006;12.076;2023-03-31T02:49:08;6.63;;;5.47;;
7539;SDS011;3811;49.006;12.076;2023-03-31T02:52:00;7.60;;;5.67;;
7539;SDS011;3811;49.006;12.076;2023-03-31T02:57:51;7.20;;;5.03;;
7539;SDS011;3811;49.006;12.076;2023-03-31T03:00:28;5.97;;;5.37;;
7539;SDS011;3811;49.006;12.076;2023-03-31T03:03:00;6.20;;;5.60;;
7539;SDS011;3811;49.006;12.076;2023-03-31T03:05:40;6.97;;;5.53;;
7539;SDS011;3811;49.006;12.076;2023-03-31T03:08:45;6.43;;;5.43;;
7539;SDS011;3811;49.006;12.076;2023-03-31T03:11:26;6.80;;;5.90;;
7539;SDS011;3811;49.006;12.076;2023-03-31T03:14:00;6.73;;;5.60;;
7539;SDS011;3811;49.006;12.076;2023-03-31T03:16:36;7.83;;;6.17;;
7539;SDS011;3811;49.006;12.076;2023-03-31T03:19:07;7.10;;;6.27;;
7539;SDS011;3811;49.006;12.076;2023-03-31T03:21:34;6.53;;;5.53;;
7539;SDS011;3811;49.006;12.076;2023-03-31T03:24:02;6.33;;;5.73;;
7539;SDS011;3811;49.006;12.076;2023-03-31T03:26:29;7.70;;;5.57;;
7539;SDS011;3811;49.006;12.076;2023-03-31T03:28:59;6.67;;;5.67;;
7539;SDS011;3811;49.006;12.076;2023-03-31T03:31:26;7.10;;;6.07;;
7539;SDS011;3811;49.006;12.076;2023-03-31T03:33:56;8.03;;;5.50;;
7539;SDS011;3811;49.006;12.076;2023-03-31T03:36:23;8.70;;;6.03;;
7539;SDS011;3811;49.006;12.076;2023-03-31T03:38:50;6.80;;;6.10;;
7539;SDS011;3811;49.006;12.076;2023-03-31T03:41:17;9.57;;;6.20;;
7539;SDS011;3811;49.006;12.076;2023-03-31T03:43:45;7.37;;;6.10;;
7539;SDS011;3811;49.006;12.076;2023-03-31T03:46:12;8.33;;;6.10;;
7539;SDS011;3811;49.006;12.076;2023-03-31T03:48:39;9.00;;;6.80;;
7539;SDS011;3811;49.006;12.076;2023-03-31T03:51:08;6.83;;;6.07;;
7539;SDS011;3811;49.006;12.076;2023-03-31T03:53:35;7.50;;;6.20;;
7539;SDS011;3811;49.006;12.076;2023-03-31T03:56:03;6.03;;;5.43;;
7539;SDS011;3811;49.006;12.076;2023-03-31T03:58:30;8.40;;;5.93;;
7539;SDS011;3811;49.006;12.076;2023-03-31T04:00:57;7.10;;;5.83;;
7539;SDS011;3811;49.006;12.076;2023-03-31T04:03:24;7.73;;;6.47;;
7539;SDS011;3811;49.006;12.076;2023-03-31T04:05:52;6.80;;;5.90;;
7539;SDS011;3811;49.006;12.076;2023-03-31T04:08:20;11.30;;;6.47;;
7539;SDS011;3811;49.006;12.076;2023-03-31T04:10:48;7.33;;;6.17;;
7539;SDS011;3811;49.006;12.076;2023-03-31T04:13:15;12.63;;;7.13;;
7539;SDS011;3811;49.006;12.076;2023-03-31T04:15:43;8.23;;;7.07;;
7539;SDS011;3811;49.006;12.076;2023-03-31T04:18:11;8.57;;;7.67;;
7539;SDS011;3811;49.006;12.076;2023-03-31T04:20:43;8.47;;;7.67;;
7539;SDS011;3811;49.006;12.076;2023-03-31T04:23:10;7.93;;;6.90;;
7539;SDS011;3811;49.006;12.076;2023-03-31T04:25:40;8.77;;;6.93;;
7539;SDS011;3811;49.006;12.076;2023-03-31T04:28:10;12.07;;;7.50;;
7539;SDS011;3811;49.006;12.076;2023-03-31T04:30:39;9.27;;;7.20;;
7539;SDS011;3811;49.006;12.076;2023-03-31T04:33:06;7.23;;;6.07;;
7539;SDS011;3811;49.006;12.076;2023-03-31T04:35:33;7.07;;;6.37;;
7539;SDS011;3811;49.006;12.076;2023-03-31T04:38:16;8.30;;;6.03;;
7539;SDS011;3811;49.006;12.076;2023-03-31T04:41:05;10.00;;;6.17;;
7539;SDS011;3811;49.006;12.076;2023-03-31T04:43:32;9.20;;;6.00;;
7539;SDS011;3811;49.006;12.076;2023-03-31T04:45:59;7.53;;;5.50;;
7539;SDS011;3811;49.006;12.076;2023-03-31T04:48:27;9.50;;;6.07;;
7539;SDS011;3811;49.006;12.076;2023-03-31T04:50:55;6.70;;;5.17;;
7539;SDS011;3811;49.006;12.076;2023-03-31T04:53:22;7.90;;;5.00;;
7539;SDS011;3811;49.006;12.076;2023-03-31T04:55:50;7.00;;;4.97;;
7539;SDS011;3811;49.006;12.076;2023-03-31T04:58:19;8.47;;;5.53;;
7539;SDS011;3811;49.006;12.076;2023-03-31T05:00:46;6.10;;;4.83;;
7539;SDS011;3811;49.006;12.076;2023-03-31T05:03:13;8.77;;;4.80;;
7539;SDS011;3811;49.006;12.076;2023-03-31T05:05:40;5.33;;;4.60;;
7539;SDS011;3811;49.006;12.076;2023-03-31T05:08:08;6.47;;;5.10;;
7539;SDS011;3811;49.006;12.076;2023-03-31T05:10:35;7.00;;;5.60;;
7539;SDS011;3811;49.006;12.076;2023-03-31T05:13:02;10.67;;;5.50;;
7539;SDS011;3811;49.006;12.076;2023-03-31T05:15:31;7.30;;;5.60;;
7539;SDS011;3811;49.006;12.076;2023-03-31T05:17:58;6.60;;;5.00;;
7539;SDS011;3811;49.006;12.076;2023-03-31T05:20:26;8.10;;;4.83;;
7539;SDS011;3811;49.006;12.076;2023-03-31T05:22:53;9.93;;;6.20;;
7539;SDS011;3811;49.006;12.076;2023-03-31T05:25:20;7.70;;;5.10;;
7539;SDS011;3811;49.006;12.076;2023-03-31T05:27:48;11.80;;;5.77;;
7539;SDS011;3811;49.006;12.076;2023-03-31T05:30:15;7.60;;;5.47;;
7539;SDS011;3811;49.006;12.076;2023-03-31T05:32:44;7.23;;;5.97;;
7539;SDS011;3811;49.006;12.076;2023-03-31T05:35:11;7.43;;;6.70;;
7539;SDS011;3811;49.006;12.076;2023-03-31T05:37:39;10.00;;;8.50;;
7539;SDS011;3811;49.006;12.076;2023-03-31T05:40:06;12.67;;;7.83;;
7539;SDS011;3811;49.006;12.076;2023-03-31T05:42:35;10.87;;;7.53;;
7539;SDS011;3811;49.006;12.076;2023-03-31T05:45:02;9.07;;;7.87;;
7539;SDS011;3811;49.006;12.076;2023-03-31T05:47:30;8.73;;;7.83;;
7539;SDS011;3811;49.006;12.076;2023-03-31T05:49:59;8.97;;;7.77;;
7539;SDS011;3811;49.006;12.076;2023-03-31T05:52:28;9.73;;;6.57;;
7539;SDS011;3811;49.006;12.076;2023-03-31T05:54:57;9.37;;;6.90;;
7539;SDS011;3811;49.006;12.076;2023-03-31T05:57:24;11.40;;;7.43;;
7539;SDS011;3811;49.006;12.076;2023-03-31T05:59:51;7.67;;;6.97;;
7539;SDS011;3811;49.006;12.076;2023-03-31T06:02:18;9.17;;;7.07;;
7539;SDS011;3811;49.006;12.076;2023-03-31T06:04:46;9.87;;;7.47;;
7539;SDS011;3811;49.006;12.076;2023-03-31T06:07:15;9.80;;;8.00;;
7539;SDS011;3811;49.006;12.076;2023-03-31T06:09:44;8.80;;;7.60;;
7539;SDS011;3811;49.006;12.076;2023-03-31T06:12:11;10.40;;;9.07;;
7539;SDS011;3811;49.006;12.076;2023-03-31T06:14:38;11.73;;;9.33;;
7539;SDS011;3811;49.006;12.076;2023-03-31T06:17:05;12.07;;;9.47;;
7539;SDS011;3811;49.006;12.076;2023-03-31T06:19:32;11.93;;;8.70;;
7539;SDS011;3811;49.006;12.076;2023-03-31T06:22:00;12.13;;;9.93;;
7539;SDS011;3811;49.006;12.076;2023-03-31T06:24:28;11.63;;;9.43;;
7539;SDS011;3811;49.006;12.076;2023-03-31T06:26:56;15.50;;;9.93;;
7539;SDS011;3811;49.006;12.076;2023-03-31T06:29:25;13.07;;;9.90;;
7539;SDS011;3811;49.006;12.076;2023-03-31T06:31:52;13.47;;;8.57;;
7539;SDS011;3811;49.006;12.076;2023-03-31T06:34:20;9.97;;;8.20;;
7539;SDS011;3811;49.006;12.076;2023-03-31T06:36:47;10.70;;;9.07;;
7539;SDS011;3811;49.006;12.076;2023-03-31T06:39:15;9.03;;;8.23;;
7539;SDS011;3811;49.006;12.076;2023-03-31T06:41:43;10.50;;;8.33;;
7539;SDS011;3811;49.006;12.076;2023-03-31T06:44:18;11.90;;;8.50;;
7539;SDS011;3811;49.006;12.076;2023-03-31T06:46:47;10.70;;;7.37;;
7539;SDS011;3811;49.006;12.076;2023-03-31T06:49:14;11.17;;;7.97;;
7539;SDS011;3811;49.006;12.076;2023-03-31T06:51:41;10.00;;;8.50;;
7539;SDS011;3811;49.006;12.076;2023-03-31T06:54:09;10.67;;;8.30;;
7539;SDS011;3811;49.006;12.076;2023-03-31T06:56:36;9.17;;;7.27;;
7539;SDS011;3811;49.006;12.076;2023-03-31T06:59:05;12.37;;;8.13;;
7539;SDS011;3811;49.006;12.076;2023-03-31T07:01:32;9.43;;;7.40;;
7539;SDS011;3811;49.006;12.076;2023-03-31T07:04:02;7.80;;;6.80;;
7539;SDS011;3811;49.006;12.076;2023-03-31T07:06:29;10.67;;;7.23;;
7539;SDS011;3811;49.006;12.076;2023-03-31T07:08:56;8.60;;;7.40;;
7539;SDS011;3811;49.006;12.076;2023-03-31T07:11:23;9.40;;;6.63;;
7539;SDS011;3811;49.006;12.076;2023-03-31T07:13:51;8.47;;;7.37;;
7539;SDS011;3811;49.006;12.076;2023-03-31T07:16:20;10.33;;;7.30;;
7539;SDS011;3811;49.006;12.076;2023-03-31T07:18:48;9.67;;;7.13;;
7539;SDS011;3811;49.006;12.076;2023-03-31T07:21:18;8.23;;;7.10;;
7539;SDS011;3811;49.006;12.076;2023-03-31T07:23:45;8.30;;;7.20;;
7539;SDS011;3811;49.006;12.076;2023-03-31T07:26:12;8.40;;;6.80;;
7539;SDS011;3811;49.006;12.076;2023-03-31T07:28:40;9.30;;;7.20;;
7539;SDS011;3811;49.006;12.076;2023-03-31T07:31:11;9.00;;;7.70;;
7539;SDS011;3811;49.006;12.076;2023-03-31T07:33:39;10.77;;;7.20;;
7539;SDS011;3811;49.006;12.076;2023-03-31T07:36:07;8.63;;;7.37;;
7539;SDS011;3811;49.006;12.076;2023-03-31T07:38:34;11.23;;;7.87;;
7539;SDS011;3811;49.006;12.076;2023-03-31T07:41:01;9.93;;;7.53;;
7539;SDS011;3811;49.006;12.076;2023-03-31T07:43:29;10.03;;;8.27;;
7539;SDS011;3811;49.006;12.076;2023-03-31T07:45:56;9.10;;;8.07;;
7539;SDS011;3811;49.006;12.076;2023-03-31T07:48:24;10.37;;;8.20;;
7539;SDS011;3811;49.006;12.076;2023-03-31T07:50:54;9.13;;;7.60;;
7539;SDS011;3811;49.006;12.076;2023-03-31T07:53:28;10.17;;;7.60;;
7539;SDS011;3811;49.006;12.076;2023-03-31T07:55:56;8.17;;;7.20;;
7539;SDS011;3811;49.006;12.076;2023-03-31T07:58:24;12.67;;;7.33;;
7539;SDS011;3811;49.006;12.076;2023-03-31T08:00:51;8.47;;;7.60;;
7539;SDS011;3811;49.006;12.076;2023-03-31T08:03:19;8.00;;;7.20;;
7539;SDS011;3811;49.006;12.076;2023-03-31T08:05:46;8.23;;;7.43;;
7539;SDS011;3811;49.006;12.076;2023-03-31T08:08:15;8.43;;;7.60;;
7539;SDS011;3811;49.006;12.076;2023-03-31T08:10:42;8.67;;;7.37;;
7539;SDS011;3811;49.006;12.076;2023-03-31T08:13:09;9.10;;;7.33;;
7539;SDS011;3811;49.006;12.076;2023-03-31T08:15:36;8.70;;;7.40;;
7539;SDS011;3811;49.006;12.076;2023-03-31T08:18:04;10.00;;;7.13;;
7539;SDS011;3811;49.006;12.076;2023-03-31T08:20:31;12.73;;;7.77;;
7539;SDS011;3811;49.006;12.076;2023-03-31T08:22:59;10.20;;;7.93;;
7539;SDS011;3811;49.006;12.076;2023-03-31T08:25:27;10.43;;;7.17;;
7539;SDS011;3811;49.006;12.076;2023-03-31T08:27:55;10.00;;;7.73;;
7539;SDS011;3811;49.006;12.076;2023-03-31T08:30:23;10.43;;;7.73;;
7539;SDS011;3811;49.006;12.076;2023-03-31T08:32:50;11.60;;;8.00;;
7539;SDS011;3811;49.006;12.076;2023-03-31T08:35:17;10.77;;;8.73;;
7539;SDS011;3811;49.006;12.076;2023-03-31T08:37:45;8.83;;;7.73;;
7539;SDS011;3811;49.006;12.076;2023-03-31T08:40:13;8.50;;;7.60;;
7539;SDS011;3811;49.006;12.076;2023-03-31T08:42:48;10.53;;;8.50;;
7539;SDS011;3811;49.006;12.076;2023-03-31T08:45:17;10.30;;;9.20;;
7539;SDS011;3811;49.006;12.076;2023-03-31T08:47:49;9.93;;;8.30;;
7539;SDS011;3811;49.006;12.076;2023-03-31T08:50:19;10.43;;;8.67;;
7539;SDS011;3811;49.006;12.076;2023-03-31T08:52:51;11.23;;;8.47;;
7539;SDS011;3811;49.006;12.076;2023-03-31T08:55:26;12.93;;;9.17;;
7539;SDS011;3811;49.006;12.076;2023-03-31T08:57:58;15.53;;;8.10;;
7539;SDS011;3811;49.006;12.076;2023-03-31T09:00:28;9.20;;;8.30;;
7539;SDS011;3811;49.006;12.076;2023-03-31T09:03:06;10.73;;;8.33;;
7539;SDS011;3811;49.006;12.076;2023-03-31T09:05:44;11.43;;;8.80;;
7539;SDS011;3811;49.006;12.076;2023-03-31T09:08:13;9.90;;;8.73;;
7539;SDS011;3811;49.006;12.076;2023-03-31T09:10:46;9.80;;;8.80;;
7539;SDS011;3811;49.006;12.076;2023-03-31T09:13:26;10.70;;;8.20;;
7539;SDS011;3811;49.006;12.076;2023-03-31T09:15:57;9.60;;;8.33;;
7539;SDS011;3811;49.006;12.076;2023-03-31T09:18:27;21.57;;;15.30;;
7539;SDS011;3811;49.006;12.076;2023-03-31T09:21:01;36.67;;;22.90;;
7539;SDS011;3811;49.006;12.076;2023-03-31T09:23:31;38.63;;;22.03;;
7539;SDS011;3811;49.006;12.076;2023-03-31T09:26:01;12.17;;;9.43;;
7539;SDS011;3811;49.006;12.076;2023-03-31T09:28:32;10.23;;;9.00;;
7539;SDS011;3811;49.006;12.076;2023-03-31T09:31:03;8.90;;;8.07;;
7539;SDS011;3811;49.006;12.076;2023-03-31T09:33:39;9.03;;;7.90;;
7539;SDS011;3811;49.006;12.076;2023-03-31T09:36:12;8.90;;;7.17;;
7539;SDS011;3811;49.006;12.076;2023-03-31T09:38:42;7.13;;;6.50;;
7539;SDS011;3811;49.006;12.076;2023-03-31T09:41:10;7.47;;;6.70;;
7539;SDS011;3811;49.006;12.076;2023-03-31T09:43:41;7.77;;;6.90;;
7539;SDS011;3811;49.006;12.076;2023-03-31T09:46:13;7.60;;;6.80;;
7539;SDS011;3811;49.006;12.076;2023-03-31T09:48:42;8.37;;;6.73;;
7539;SDS011;3811;49.006;12.076;2023-03-31T09:51:15;7.20;;;6.50;;
7539;SDS011;3811;49.006;12.076;2023-03-31T09:53:46;8.20;;;7.40;;
7539;SDS011;3811;49.006;12.076;2023-03-31T09:56:30;9.40;;;7.17;;
7539;SDS011;3811;49.006;12.076;2023-03-31T09:59:02;8.80;;;7.40;;
7539;SDS011;3811;49.006;12.076;2023-03-31T10:01:29;11.63;;;7.13;;
7539;SDS011;3811;49.006;12.076;2023-03-31T10:03:57;7.93;;;7.13;;
7539;SDS011;3811;49.006;12.076;2023-03-31T10:06:24;8.27;;;6.73;;
7539;SDS011;3811;49.006;12.076;2023-03-31T10:08:53;8.13;;;6.43;;
7539;SDS011;3811;49.006;12.076;2023-03-31T10:11:22;7.37;;;5.97;;
7539;SDS011;3811;49.006;12.076;2023-03-31T10:13:51;7.57;;;6.83;;
7539;SDS011;3811;49.006;12.076;2023-03-31T10:16:27;8.03;;;5.73;;
7539;SDS011;3811;49.006;12.076;2023-03-31T10:19:09;6.13;;;5.53;;
7539;SDS011;3811;49.006;12.076;2023-03-31T10:21:38;6.27;;;4.93;;
7539;SDS011;3811;49.006;12.076;2023-03-31T10:24:07;5.70;;;4.80;;
7539;SDS011;3811;49.006;12.076;2023-03-31T10:26:35;7.23;;;5.03;;
7539;SDS011;3811;49.006;12.076;2023-03-31T10:29:05;5.23;;;4.73;;
7539;SDS011;3811;49.006;12.076;2023-03-31T10:31:38;5.67;;;4.67;;
7539;SDS011;3811;49.006;12.076;2023-03-31T10:34:06;5.50;;;4.87;;
7539;SDS011;3811;49.006;12.076;2023-03-31T10:36:35;4.80;;;3.70;;
7539;SDS011;3811;49.006;12.076;2023-03-31T10:39:04;4.20;;;3.80;;
7539;SDS011;3811;49.006;12.076;2023-03-31T10:41:32;4.37;;;3.57;;
7539;SDS011;3811;49.006;12.076;2023-03-31T10:44:02;4.43;;;3.50;;
7539;SDS011;3811;49.006;12.076;2023-03-31T10:46:41;5.40;;;3.93;;
7539;SDS011;3811;49.006;12.076;2023-03-31T10:49:15;3.40;;;3.10;;
7539;SDS011;3811;49.006;12.076;2023-03-31T10:51:51;4.77;;;3.20;;
7539;SDS011;3811;49.006;12.076;2023-03-31T10:54:19;4.20;;;3.30;;
7539;SDS011;3811;49.006;12.076;2023-03-31T10:56:46;4.03;;;3.43;;
7539;SDS011;3811;49.006;12.076;2023-03-31T10:59:23;6.43;;;3.33;;
7539;SDS011;3811;49.006;12.076;2023-03-31T11:04:56;3.60;;;2.70;;
7539;SDS011;3811;49.006;12.076;2023-03-31T11:07:34;4.53;;;3.23;;
7539;SDS011;3811;49.006;12.076;2023-03-31T11:10:28;5.27;;;2.97;;
7539;SDS011;3811;49.006;12.076;2023-03-31T11:13:10;3.70;;;2.93;;
7539;SDS011;3811;49.006;12.076;2023-03-31T11:15:42;3.10;;;2.63;;
7539;SDS011;3811;49.006;12.076;2023-03-31T11:21:11;3.87;;;2.70;;
7539;SDS011;3811;49.006;12.076;2023-03-31T11:23:48;4.73;;;2.87;;
7539;SDS011;3811;49.006;12.076;2023-03-31T11:26:24;3.20;;;2.20;;
7539;SDS011;3811;49.006;12.076;2023-03-31T11:29:03;3.30;;;2.00;;
7539;SDS011;3811;49.006;12.076;2023-03-31T11:31:43;4.23;;;2.10;;
7539;SDS011;3811;49.006;12.076;2023-03-31T11:34:29;3.90;;;2.17;;
7539;SDS011;3811;49.006;12.076;2023-03-31T11:37:13;2.13;;;1.93;;
7539;SDS011;3811;49.006;12.076;2023-03-31T11:39:52;3.37;;;1.90;;
7539;SDS011;3811;49.006;12.076;2023-03-31T11:42:32;2.33;;;1.90;;
7539;SDS011;3811;49.006;12.076;2023-03-31T11:45:04;3.73;;;1.70;;
7539;SDS011;3811;49.006;12.076;2023-03-31T11:47:32;2.27;;;1.67;;
7539;SDS011;3811;49.006;12.076;2023-03-31T11:50:03;1.90;;;1.60;;
7539;SDS011;3811;49.006;12.076;2023-03-31T11:52:38;2.73;;;1.60;;
7539;SDS011;3811;49.006;12.076;2023-03-31T11:55:11;3.90;;;2.10;;
7539;SDS011;3811;49.006;12.076;2023-03-31T11:57:41;2.47;;;1.57;;
7539;SDS011;3811;49.006;12.076;2023-03-31T12:00:14;2.13;;;1.50;;
7539;SDS011;3811;49.006;12.076;2023-03-31T12:02:46;1.33;;;1.23;;
7539;SDS011;3811;49.006;12.076;2023-03-31T12:05:17;3.80;;;1.73;;
7539;SDS011;3811;49.006;12.076;2023-03-31T12:07:49;2.07;;;1.50;;
7539;SDS011;3811;49.006;12.076;2023-03-31T12:10:18;1.90;;;1.27;;
7539;SDS011;3811;49.006;12.076;2023-03-31T12:12:47;3.37;;;1.80;;
7539;SDS011;3811;49.006;12.076;2023-03-31T12:15:18;1.73;;;1.23;;
7539;SDS011;3811;49.006;12.076;2023-03-31T12:17:47;1.90;;;1.40;;
7539;SDS011;3811;49.006;12.076;2023-03-31T12:20:18;1.33;;;1.17;;
7539;SDS011;3811;49.006;12.076;2023-03-31T12:22:48;1.30;;;1.20;;
7539;SDS011;3811;49.006;12.076;2023-03-31T12:25:19;1.70;;;1.60;;
7539;SDS011;3811;49.006;12.076;2023-03-31T12:27:50;1.60;;;1.20;;
7539;SDS011;3811;49.006;12.076;2023-03-31T12:30:19;2.27;;;1.13;;
7539;SDS011;3811;49.006;12.076;2023-03-31T12:32:50;1.43;;;1.33;;
7539;SDS011;3811;49.006;12.076;2023-03-31T12:35:20;3.43;;;1.30;;
7539;SDS011;3811;49.006;12.076;2023-03-31T12:41:03;1.03;;;1.03;;
7539;SDS011;3811;49.006;12.076;2023-03-31T12:43:36;1.27;;;1.17;;
7539;SDS011;3811;49.006;12.076;2023-03-31T12:46:23;2.00;;;1.20;;
7539;SDS011;3811;49.006;12.076;2023-03-31T12:49:15;2.30;;;1.00;;
7539;SDS011;3811;49.006;12.076;2023-03-31T12:51:56;2.10;;;1.50;;
7539;SDS011;3811;49.006;12.076;2023-03-31T12:54:30;3.43;;;2.00;;
7539;SDS011;3811;49.006;12.076;2023-03-31T12:57:19;2.07;;;1.80;;
7539;SDS011;3811;49.006;12.076;2023-03-31T13:00:08;3.90;;;1.63;;
7539;SDS011;3811;49.006;12.076;2023-03-31T13:02:36;1.43;;;1.13;;
7539;SDS011;3811;49.006;12.076;2023-03-31T13:07:46;2.37;;;1.50;;
7539;SDS011;3811;49.006;12.076;2023-03-31T13:10:28;2.80;;;1.30;;
7539;SDS011;3811;49.006;12.076;2023-03-31T13:13:01;2.17;;;1.20;;
7539;SDS011;3811;49.006;12.076;2023-03-31T13:15:29;1.10;;;1.10;;
7539;SDS011;3811;49.006;12.076;2023-03-31T13:17:57;1.40;;;1.30;;
7539;SDS011;3811;49.006;12.076;2023-03-31T13:20:29;1.83;;;1.20;;
7539;SDS011;3811;49.006;12.076;2023-03-31T13:23:03;1.30;;;1.20;;
7539;SDS011;3811;49.006;12.076;2023-03-31T13:25:36;1.87;;;1.23;;
7539;SDS011;3811;49.006;12.076;2023-03-31T13:28:15;2.50;;;1.57;;
7539;SDS011;3811;49.006;12.076;2023-03-31T13:31:08;1.07;;;0.80;;
7539;SDS011;3811;49.006;12.076;2023-03-31T13:33:38;1.40;;;1.30;;
7539;SDS011;3811;49.006;12.076;2023-03-31T13:36:29;2.87;;;0.93;;
7539;SDS011;3811;49.006;12.076;2023-03-31T13:39:20;2.63;;;1.43;;
7539;SDS011;3811;49.006;12.076;2023-03-31T13:42:00;6.30;;;1.40;;
7539;SDS011;3811;49.006;12.076;2023-03-31T13:44:37;1.40;;;0.83;;
7539;SDS011;3811;49.006;12.076;2023-03-31T13:47:15;1.67;;;0.60;;
7539;SDS011;3811;49.006;12.076;2023-03-31T13:50:09;1.80;;;0.97;;
7539;SDS011;3811;49.006;12.076;2023-03-31T13:52:42;1.10;;;0.60;;
7539;SDS011;3811;49.006;12.076;2023-03-31T13:55:27;0.90;;;0.90;;
7539;SDS011;3811;49.006;12.076;2023-03-31T13:58:26;0.70;;;0.70;;
7539;SDS011;3811;49.006;12.076;2023-03-31T14:01:11;1.50;;;0.70;;
7539;SDS011;3811;49.006;12.076;2023-03-31T14:03:48;0.90;;;0.90;;
7539;SDS011;3811;49.006;12.076;2023-03-31T14:06:25;1.50;;;0.83;;
7539;SDS011;3811;49.006;12.076;2023-03-31T14:09:01;4.33;;;0.83;;
7539;SDS011;3811;49.006;12.076;2023-03-31T14:11:30;0.80;;;0.80;;
7539;SDS011;3811;49.006;12.076;2023-03-31T14:13:59;1.07;;;0.80;;
7539;SDS011;3811;49.006;12.076;2023-03-31T14:16:28;1.17;;;0.90;;
7539;SDS011;3811;49.006;12.076;2023-03-31T14:19:00;0.93;;;0.87;;
7539;SDS011;3811;49.006;12.076;2023-03-31T14:21:29;1.17;;;0.87;;
7539;SDS011;3811;49.006;12.076;2023-03-31T14:24:04;1.23;;;1.23;;
7539;SDS011;3811;49.006;12.076;2023-03-31T14:26:52;0.70;;;0.70;;
7539;SDS011;3811;49.006;12.076;2023-03-31T14:29:22;1.77;;;0.70;;
7539;SDS011;3811;49.006;12.076;2023-03-31T14:31:57;0.80;;;0.80;;
7539;SDS011;3811;49.006;12.076;2023-03-31T14:34:40;0.93;;;0.83;;
7539;SDS011;3811;49.006;12.076;2023-03-31T14:37:17;4.77;;;0.90;;
7539;SDS011;3811;49.006;12.076;2023-03-31T14:39:47;1.03;;;1.03;;
7539;SDS011;3811;49.006;12.076;2023-03-31T14:42:17;4.50;;;0.90;;
7539;SDS011;3811;49.006;12.076;2023-03-31T14:44:45;0.93;;;0.80;;
7539;SDS011;3811;49.006;12.076;2023-03-31T14:47:15;1.80;;;1.00;;
7539;SDS011;3811;49.006;12.076;2023-03-31T14:49:42;1.00;;;0.93;;
7539;SDS011;3811;49.006;12.076;2023-03-31T14:52:14;1.17;;;1.00;;
7539;SDS011;3811;49.006;12.076;2023-03-31T14:54:43;1.03;;;0.77;;
7539;SDS011;3811;49.006;12.076;2023-03-31T14:57:12;0.87;;;0.87;;
7539;SDS011;3811;49.006;12.076;2023-03-31T14:59:43;3.93;;;1.60;;
7539;SDS011;3811;49.006;12.076;2023-03-31T15:02:14;1.47;;;1.10;;
7539;SDS011;3811;49.006;12.076;2023-03-31T15:04:42;1.00;;;0.93;;
7539;SDS011;3811;49.006;12.076;2023-03-31T15:07:12;0.90;;;0.90;;
7539;SDS011;3811;49.006;12.076;2023-03-31T15:09:41;0.70;;;0.70;;
7539;SDS011;3811;49.006;12.076;2023-03-31T15:12:14;2.47;;;1.00;;
7539;SDS011;3811;49.006;12.076;2023-03-31T15:14:44;1.57;;;1.10;;
7539;SDS011;3811;49.006;12.076;2023-03-31T15:17:21;1.20;;;0.70;;
7539;SDS011;3811;49.006;12.076;2023-03-31T15:19:53;0.70;;;0.70;;
7539;SDS011;3811;49.006;12.076;2023-03-31T15:22:21;0.73;;;0.70;;
7539;SDS011;3811;49.006;12.076;2023-03-31T15:24:50;2.23;;;1.07;;
7539;SDS011;3811;49.006;12.076;2023-03-31T15:27:19;0.77;;;0.77;;
7539;SDS011;3811;49.006;12.076;2023-03-31T15:29:53;0.90;;;0.90;;
7539;SDS011;3811;49.006;12.076;2023-03-31T15:32:25;1.63;;;0.93;;
7539;SDS011;3811;49.006;12.076;2023-03-31T15:34:54;1.27;;;1.00;;
7539;SDS011;3811;49.006;12.076;2023-03-31T15:37:22;2.83;;;0.80;;
7539;SDS011;3811;49.006;12.076;2023-03-31T15:39:53;1.33;;;0.90;;
7539;SDS011;3811;49.006;12.076;2023-03-31T15:42:21;1.53;;;0.93;;
7539;SDS011;3811;49.006;12.076;2023-03-31T15:44:52;2.17;;;1.00;;
7539;SDS011;3811;49.006;12.076;2023-03-31T15:47:20;4.30;;;1.20;;